KJFK/JFK METAR and TAF weather

Enter ICAO airport designator
Station Type Date Time Source
KJFK METAR 2020/09/26 22:51 UTC NOAA

KJFK 262251Z 12005KT 10SM SCT007 SCT075 BKN110 21/19 A3005 RMK AO2 SLP174 T02060194 $


Station Type Date Time Source
KJFK Decoded METAR 2020/09/26 22:51 UTC NOAA

KENNEDY INTERNATIONAL AIRPORT , NY, United States (KJFK) 40-38N 073-46W 9M
Sep 26, 2020 - 06:51 PM EDT / 2020.09.26 2251 UTC
Wind: from the ESE (120 degrees) at 6 MPH (5 KT):0
Visibility: 10 mile(s):0
Sky conditions: mostly cloudy
Temperature: 69.1 F (20.6 C)
Dew Point: 66.9 F (19.4 C)
Relative Humidity: 92%
Pressure (altimeter): 30.05 in. Hg (1017 hPa)
ob: KJFK 262251Z 12005KT 10SM SCT007 SCT075 BKN110 21/19 A3005 RMK AO2 SLP174 T02060194
cycle: 23

Station Type Date Time Source
KJFK TAF 2020/09/26 20:58 UTC NOAA

TAF
AMD KJFK 261951Z 2620/2724 15009KT P6SM SCT020 SCT035
TEMPO 2620/2624 BKN020
FM270000 14008KT P6SM BKN012
FM270200 16005KT 4SM BR OVC005
FM271400 13007KT P6SM BKN020
FM271800 13010KT P6SM SCT030

Example: see airport list